createdAt,value
2023-09-20T00:00:34.141Z,13.79
2023-09-20T00:03:00.573Z,13.86
2023-09-20T00:05:26.959Z,13.93
2023-09-20T00:07:53.371Z,13.99
2023-09-20T00:10:19.774Z,13.94
2023-09-20T00:12:46.144Z,13.90
2023-09-20T00:15:12.463Z,13.72
2023-09-20T00:17:38.963Z,13.79
2023-09-20T00:20:05.354Z,13.79
2023-09-20T00:22:31.679Z,13.74
2023-09-20T00:24:58.078Z,13.79
2023-09-20T00:27:24.528Z,13.79
2023-09-20T00:29:50.832Z,13.90
2023-09-20T00:32:17.277Z,13.97
2023-09-20T00:34:43.615Z,14.03
2023-09-20T00:37:09.944Z,14.07
2023-09-20T00:39:36.356Z,14.13
2023-09-20T00:42:02.815Z,14.25
2023-09-20T00:44:29.162Z,14.36
2023-09-20T00:46:55.586Z,14.37
2023-09-20T00:49:22.024Z,14.38
2023-09-20T00:51:48.501Z,14.37
2023-09-20T00:54:14.877Z,14.36
2023-09-20T00:56:41.284Z,14.32
2023-09-20T00:59:07.752Z,14.33
2023-09-20T01:01:34.213Z,14.39
2023-09-20T01:04:00.776Z,14.34
2023-09-20T01:06:27.213Z,14.22
2023-09-20T01:08:53.578Z,14.09
2023-09-20T01:11:20.066Z,14.04
2023-09-20T01:13:46.417Z,14.07
2023-09-20T01:16:12.858Z,13.99
2023-09-20T01:18:39.402Z,13.92
2023-09-20T01:21:05.912Z,13.88
2023-09-20T01:23:32.360Z,13.90
2023-09-20T01:25:58.831Z,13.89
2023-09-20T01:28:25.142Z,13.89
2023-09-20T01:30:51.634Z,13.78
2023-09-20T01:33:18.213Z,13.78
2023-09-20T01:35:44.510Z,13.77
2023-09-20T01:38:10.909Z,13.66
2023-09-20T01:40:37.225Z,13.68
2023-09-20T01:43:03.535Z,13.62
2023-09-20T01:45:29.897Z,13.64
2023-09-20T01:47:56.396Z,13.69
2023-09-20T01:50:22.828Z,13.70
2023-09-20T01:52:49.231Z,13.70
2023-09-20T01:55:15.675Z,13.73
2023-09-20T01:57:41.966Z,13.73
2023-09-20T02:00:08.309Z,13.68
2023-09-20T02:02:34.826Z,13.64
2023-09-20T02:05:01.202Z,13.63
2023-09-20T02:07:27.565Z,13.59
2023-09-20T02:09:53.864Z,13.51
2023-09-20T02:12:20.154Z,13.42
2023-09-20T02:14:46.494Z,13.39
2023-09-20T02:17:12.904Z,13.41
2023-09-20T02:19:40.482Z,13.51
2023-09-20T02:22:07.044Z,13.58
2023-09-20T02:24:33.355Z,13.58
2023-09-20T02:26:59.664Z,13.56
2023-09-20T02:29:26.020Z,13.37
2023-09-20T02:31:52.493Z,13.44
2023-09-20T02:34:18.793Z,13.41
2023-09-20T02:36:45.145Z,13.47
2023-09-20T02:39:11.585Z,13.50
2023-09-20T02:41:37.913Z,13.48
2023-09-20T02:44:04.385Z,13.47
2023-09-20T02:46:30.888Z,13.31
2023-09-20T02:48:57.316Z,13.31
2023-09-20T02:51:23.861Z,13.25
2023-09-20T02:53:50.265Z,13.10
2023-09-20T02:56:16.614Z,13.17
2023-09-20T02:58:43.326Z,13.15
2023-09-20T03:01:09.759Z,13.16
2023-09-20T03:03:36.157Z,13.28
2023-09-20T03:06:02.548Z,13.25
2023-09-20T03:08:28.942Z,13.15
2023-09-20T03:10:55.283Z,13.12
2023-09-20T03:13:21.661Z,13.15
2023-09-20T03:15:48.220Z,13.11
2023-09-20T03:18:14.644Z,13.11
2023-09-20T03:20:41.795Z,13.11
2023-09-20T03:23:08.554Z,13.13
2023-09-20T03:25:34.889Z,13.16
2023-09-20T03:28:01.228Z,13.05
2023-09-20T03:30:27.662Z,13.01
2023-09-20T03:32:54.057Z,12.94
2023-09-20T03:35:20.518Z,13.01
2023-09-20T03:37:46.887Z,13.05
2023-09-20T03:40:13.205Z,13.06
2023-09-20T03:42:39.521Z,13.11
2023-09-20T03:45:05.850Z,13.16
2023-09-20T03:47:32.226Z,13.26
2023-09-20T03:49:58.609Z,13.21
2023-09-20T03:52:25.043Z,13.15
2023-09-20T03:54:51.347Z,13.09
2023-09-20T03:57:17.677Z,13.11
2023-09-20T03:59:43.985Z,13.15
2023-09-20T04:02:10.305Z,13.14
2023-09-20T04:04:36.752Z,13.12
2023-09-20T04:07:03.187Z,13.13
2023-09-20T04:09:29.461Z,13.10
2023-09-20T04:11:55.888Z,13.15
2023-09-20T04:14:22.280Z,13.06
2023-09-20T04:16:48.657Z,12.97
2023-09-20T04:19:15.030Z,13.01
2023-09-20T04:21:41.466Z,13.05
2023-09-20T04:24:07.777Z,13.03
2023-09-20T04:26:34.163Z,13.05
2023-09-20T04:29:00.535Z,13.04
2023-09-20T04:31:26.897Z,13.06
2023-09-20T04:33:53.248Z,12.95
2023-09-20T04:36:19.713Z,12.96
2023-09-20T04:38:46.100Z,13.02
2023-09-20T04:41:12.521Z,13.04
2023-09-20T04:43:38.850Z,12.98
2023-09-20T04:46:05.358Z,12.80
2023-09-20T04:48:31.878Z,12.76
2023-09-20T04:50:58.295Z,12.70
2023-09-20T04:53:24.725Z,12.76
2023-09-20T04:55:51.198Z,12.75
2023-09-20T04:58:17.630Z,12.67
2023-09-20T05:00:43.964Z,12.70
2023-09-20T05:03:10.408Z,12.72
2023-09-20T05:05:36.883Z,12.65
2023-09-20T05:08:03.293Z,12.72
2023-09-20T05:10:29.662Z,12.74
2023-09-20T05:12:56.119Z,12.78
2023-09-20T05:15:22.429Z,12.77
2023-09-20T05:17:48.842Z,12.75
2023-09-20T05:20:15.370Z,12.78
2023-09-20T05:22:41.719Z,12.91
2023-09-20T05:25:08.053Z,12.98
2023-09-20T05:27:34.385Z,12.95
2023-09-20T05:30:00.714Z,12.92
2023-09-20T05:32:27.137Z,12.96
2023-09-20T05:34:53.622Z,13.04
2023-09-20T05:37:19.968Z,13.00
2023-09-20T05:39:46.338Z,13.00
2023-09-20T05:42:12.777Z,12.98
2023-09-20T05:44:39.101Z,12.98
2023-09-20T05:47:05.508Z,12.92
2023-09-20T05:49:32.013Z,12.95
2023-09-20T05:51:58.297Z,12.97
2023-09-20T05:54:24.697Z,12.95
2023-09-20T05:56:52.905Z,12.93
2023-09-20T05:59:19.276Z,12.83
2023-09-20T06:01:45.690Z,12.87
2023-09-20T06:04:12.107Z,12.87
2023-09-20T06:06:38.435Z,12.90
2023-09-20T06:09:04.768Z,12.99
2023-09-20T06:11:31.141Z,13.04
2023-09-20T06:13:57.514Z,13.09
2023-09-20T06:16:23.904Z,13.09
2023-09-20T06:19:03.273Z,13.10
2023-09-20T06:21:32.111Z,13.04
2023-09-20T06:23:58.579Z,13.07
2023-09-20T06:26:24.919Z,13.09
2023-09-20T06:28:51.311Z,13.07
2023-09-20T06:31:17.747Z,12.97
2023-09-20T06:33:44.049Z,13.01
2023-09-20T06:36:10.395Z,12.98
2023-09-20T06:38:36.783Z,13.00
2023-09-20T06:41:03.152Z,12.96
2023-09-20T06:43:29.570Z,12.84
2023-09-20T06:45:55.958Z,12.80
2023-09-20T06:48:23.519Z,12.96
2023-09-20T06:50:51.958Z,13.10
2023-09-20T06:53:18.341Z,13.22
2023-09-20T06:55:44.727Z,13.38
2023-09-20T06:58:19.660Z,13.51
2023-09-20T07:00:47.317Z,13.57
2023-09-20T07:03:13.775Z,13.68
2023-09-20T07:05:40.149Z,13.83
2023-09-20T07:08:06.629Z,13.90
2023-09-20T07:10:35.513Z,14.08
2023-09-20T07:13:01.853Z,14.21
2023-09-20T07:15:28.203Z,14.24
2023-09-20T07:17:54.716Z,14.33
2023-09-20T07:20:21.179Z,14.46
2023-09-20T07:22:47.657Z,14.64
2023-09-20T07:25:14.127Z,14.74
2023-09-20T07:27:40.459Z,14.88
2023-09-20T07:30:06.893Z,15.12
2023-09-20T07:32:33.403Z,15.31
2023-09-20T07:34:59.906Z,15.39
2023-09-20T07:37:26.578Z,15.54
2023-09-20T07:39:52.941Z,15.73
2023-09-20T07:42:19.276Z,15.91
2023-09-20T07:44:45.711Z,16.13
2023-09-20T07:47:12.196Z,16.31
2023-09-20T07:49:38.549Z,16.41
2023-09-20T07:52:05.293Z,16.63
2023-09-20T07:54:31.651Z,16.79
2023-09-20T07:56:58.230Z,16.90
2023-09-20T07:59:24.885Z,16.98
2023-09-20T08:01:51.494Z,17.11
2023-09-20T08:04:17.878Z,17.21
2023-09-20T08:06:44.499Z,17.38
2023-09-20T08:09:12.494Z,17.47
2023-09-20T08:11:38.848Z,17.60
2023-09-20T08:14:05.266Z,17.64
2023-09-20T08:16:46.902Z,17.73
2023-09-20T08:19:18.126Z,17.85
2023-09-20T08:21:44.506Z,18.06
2023-09-20T08:24:11.038Z,18.21
2023-09-20T08:26:37.396Z,18.31
2023-09-20T08:29:03.830Z,18.40
2023-09-20T08:31:30.365Z,18.36
2023-09-20T08:33:56.876Z,18.33
2023-09-20T08:36:23.244Z,18.25
2023-09-20T08:38:49.608Z,18.14
2023-09-20T08:41:16.022Z,17.91
2023-09-20T08:43:42.397Z,17.88
2023-09-20T08:46:08.802Z,18.04
2023-09-20T08:48:35.217Z,18.08
2023-09-20T08:51:01.688Z,18.17
2023-09-20T08:53:28.061Z,18.26
2023-09-20T08:55:55.761Z,18.36
2023-09-20T08:58:22.199Z,18.49
2023-09-20T09:00:48.524Z,18.55
2023-09-20T09:03:15.103Z,18.57
2023-09-20T09:05:41.993Z,18.55
2023-09-20T09:08:08.391Z,18.62
2023-09-20T09:10:34.768Z,18.67
2023-09-20T09:13:01.256Z,18.77
2023-09-20T09:15:27.564Z,18.86
2023-09-20T09:17:54.056Z,18.97
2023-09-20T09:20:20.929Z,19.03
2023-09-20T09:22:47.591Z,19.13
2023-09-20T09:25:14.050Z,19.24
2023-09-20T09:27:40.438Z,19.38
2023-09-20T09:30:06.792Z,19.50
2023-09-20T09:32:33.456Z,19.53
2023-09-20T09:34:59.930Z,19.69
2023-09-20T09:37:26.293Z,19.76
2023-09-20T09:39:52.750Z,19.84
2023-09-20T09:42:19.126Z,19.62
2023-09-20T09:44:45.491Z,19.68
2023-09-20T09:47:11.938Z,19.73
2023-09-20T09:49:45.834Z,19.72
2023-09-20T09:52:12.201Z,19.74
2023-09-20T09:54:38.569Z,19.71
2023-09-20T09:57:04.914Z,19.51
2023-09-20T09:59:31.296Z,19.49
2023-09-20T10:01:57.683Z,19.64
2023-09-20T10:04:24.053Z,19.60
2023-09-20T10:06:50.470Z,19.52
2023-09-20T10:09:16.856Z,19.41
2023-09-20T10:11:43.200Z,19.21
2023-09-20T10:14:09.693Z,19.36
2023-09-20T10:16:36.105Z,19.46
2023-09-20T10:19:02.667Z,19.46
2023-09-20T10:21:29.044Z,19.55
2023-09-20T10:23:55.449Z,19.68
2023-09-20T10:26:21.789Z,19.73
2023-09-20T10:28:48.316Z,19.70
2023-09-20T10:31:14.676Z,19.79
2023-09-20T10:33:41.041Z,19.83
2023-09-20T10:36:07.481Z,19.94
2023-09-20T10:38:33.909Z,20.08
2023-09-20T10:41:00.267Z,20.24
2023-09-20T10:43:26.627Z,20.37
2023-09-20T10:45:53.043Z,20.31
2023-09-20T10:48:19.486Z,20.53
2023-09-20T10:50:46.083Z,20.56
2023-09-20T10:53:12.633Z,20.74
2023-09-20T10:55:39.018Z,20.89
2023-09-20T10:58:05.349Z,20.99
2023-09-20T11:00:32.008Z,20.90
2023-09-20T11:02:58.921Z,20.64
2023-09-20T11:05:25.578Z,20.54
2023-09-20T11:07:52.057Z,20.57
2023-09-20T11:10:18.405Z,20.51
2023-09-20T11:12:45.266Z,20.45
2023-09-20T11:15:11.906Z,20.40
2023-09-20T11:17:38.481Z,20.30
2023-09-20T11:20:04.941Z,20.28
2023-09-20T11:22:31.315Z,20.48
2023-09-20T11:24:57.621Z,20.72
2023-09-20T11:27:23.970Z,20.91
2023-09-20T11:29:50.591Z,21.17
2023-09-20T11:32:17.063Z,21.26
2023-09-20T11:34:43.440Z,21.47
2023-09-20T11:37:09.818Z,21.62
2023-09-20T11:39:36.132Z,21.86
2023-09-20T11:42:02.486Z,22.03
2023-09-20T11:44:28.901Z,22.23
2023-09-20T11:46:57.262Z,22.23
2023-09-20T11:49:25.365Z,22.40
2023-09-20T11:51:51.701Z,22.57
2023-09-20T11:54:18.025Z,22.62
2023-09-20T11:56:44.567Z,22.66
2023-09-20T11:59:11.403Z,22.39
2023-09-20T12:01:37.704Z,22.55
2023-09-20T12:04:04.113Z,22.57
2023-09-20T12:06:30.541Z,22.61
2023-09-20T12:08:56.875Z,22.67
2023-09-20T12:11:23.247Z,22.62
2023-09-20T12:13:49.594Z,22.57
2023-09-20T12:16:15.974Z,22.51
2023-09-20T12:18:42.705Z,22.48
2023-09-20T12:21:09.421Z,22.48
2023-09-20T12:23:35.761Z,22.38
2023-09-20T12:26:02.193Z,22.39
2023-09-20T12:28:28.545Z,22.47
2023-09-20T12:30:54.830Z,22.59
2023-09-20T12:33:21.412Z,22.68
2023-09-20T12:35:47.836Z,22.72
2023-09-20T12:38:14.148Z,22.76
2023-09-20T12:40:40.475Z,22.76
2023-09-20T12:43:06.821Z,22.57
2023-09-20T12:45:33.101Z,22.58
2023-09-20T12:47:59.855Z,22.46
2023-09-20T12:50:26.344Z,22.35
2023-09-20T12:52:52.645Z,22.47
2023-09-20T12:55:18.986Z,22.57
2023-09-20T12:57:48.311Z,22.71
2023-09-20T13:00:23.009Z,22.78
2023-09-20T13:02:56.772Z,22.51
2023-09-20T13:05:23.240Z,22.50
2023-09-20T13:07:49.603Z,22.73
2023-09-20T13:10:16.109Z,22.90
2023-09-20T13:12:42.429Z,23.05
2023-09-20T13:15:08.764Z,23.02
2023-09-20T13:17:35.278Z,23.09
2023-09-20T13:20:01.604Z,23.14
2023-09-20T13:22:27.974Z,22.95
2023-09-20T13:24:54.493Z,22.36
2023-09-20T13:27:20.847Z,22.35
2023-09-20T13:29:47.164Z,22.35
2023-09-20T13:32:13.884Z,22.26
2023-09-20T13:34:40.220Z,21.98
2023-09-20T13:37:06.556Z,21.76
2023-09-20T13:39:32.968Z,21.45
2023-09-20T13:41:59.527Z,21.37
2023-09-20T13:44:25.877Z,21.27
2023-09-20T13:46:52.289Z,20.91
2023-09-20T13:49:18.769Z,21.23
2023-09-20T13:51:45.230Z,21.45
2023-09-20T13:54:11.742Z,21.58
2023-09-20T13:56:38.076Z,21.65
2023-09-20T13:59:04.433Z,21.67
2023-09-20T14:01:30.939Z,21.76
2023-09-20T14:03:57.291Z,21.82
2023-09-20T14:06:23.627Z,21.76
2023-09-20T14:08:50.111Z,21.41
2023-09-20T14:11:16.573Z,21.39
2023-09-20T14:13:43.108Z,21.47
2023-09-20T14:16:09.802Z,21.39
2023-09-20T14:18:36.304Z,21.44
2023-09-20T14:21:02.657Z,21.57
2023-09-20T14:23:29.059Z,21.57
2023-09-20T14:25:55.395Z,21.59
2023-09-20T14:28:21.668Z,21.50
2023-09-20T14:30:48.089Z,21.61
2023-09-20T14:33:14.540Z,21.64
2023-09-20T14:35:42.310Z,21.54
2023-09-20T14:38:09.218Z,21.58
2023-09-20T14:40:35.846Z,21.64
2023-09-20T14:43:02.451Z,21.73
2023-09-20T14:45:29.005Z,21.79
2023-09-20T14:47:55.429Z,21.90
2023-09-20T14:50:21.933Z,21.97
2023-09-20T14:52:48.427Z,22.13
2023-09-20T14:55:14.755Z,22.29
2023-09-20T14:57:41.054Z,22.36
2023-09-20T15:00:07.449Z,22.53
2023-09-20T15:02:33.783Z,22.63
2023-09-20T15:05:00.164Z,22.73
2023-09-20T15:07:26.667Z,22.82
2023-09-20T15:09:52.937Z,22.93
2023-09-20T15:12:19.277Z,22.99
2023-09-20T15:14:45.916Z,23.04
2023-09-20T15:17:12.218Z,22.64
2023-09-20T15:19:38.491Z,22.72
2023-09-20T15:22:06.512Z,22.68
2023-09-20T15:24:34.337Z,22.71
2023-09-20T15:27:00.678Z,22.73
2023-09-20T15:29:27.194Z,22.76
2023-09-20T15:31:53.588Z,22.83
2023-09-20T15:34:19.961Z,22.89
2023-09-20T15:36:46.400Z,22.86
2023-09-20T15:39:12.703Z,22.80
2023-09-20T15:41:39.035Z,22.52
2023-09-20T15:44:05.504Z,22.44
2023-09-20T15:46:31.872Z,22.38
2023-09-20T15:48:59.705Z,22.29
2023-09-20T15:51:26.120Z,22.11
2023-09-20T15:53:52.403Z,22.07
2023-09-20T15:56:18.762Z,21.76
2023-09-20T15:58:45.334Z,21.74
2023-09-20T16:01:11.683Z,21.69
2023-09-20T16:03:38.162Z,21.63
2023-09-20T16:06:04.858Z,21.60
2023-09-20T16:08:31.167Z,21.53
2023-09-20T16:10:57.500Z,21.50
2023-09-20T16:13:23.907Z,21.45
2023-09-20T16:15:50.254Z,21.39
2023-09-20T16:18:16.665Z,21.28
2023-09-20T16:20:43.341Z,21.13
2023-09-20T16:23:09.682Z,20.99
2023-09-20T16:25:35.969Z,20.85
2023-09-20T16:28:02.398Z,20.87
2023-09-20T16:30:28.716Z,20.86
2023-09-20T16:32:55.075Z,20.86
2023-09-20T16:35:21.501Z,20.82
2023-09-20T16:37:47.808Z,20.78
2023-09-20T16:40:14.093Z,20.73
2023-09-20T16:42:40.515Z,20.67
2023-09-20T16:45:06.791Z,20.61
2023-09-20T16:47:33.273Z,20.57
2023-09-20T16:49:59.781Z,20.53
2023-09-20T16:52:26.043Z,20.42
2023-09-20T16:54:52.408Z,20.35
2023-09-20T16:57:18.862Z,20.25
2023-09-20T16:59:45.153Z,20.22
2023-09-20T17:02:11.451Z,20.17
2023-09-20T17:04:37.919Z,20.06
2023-09-20T17:07:04.295Z,19.97
2023-09-20T17:09:30.641Z,19.90
2023-09-20T17:11:57.012Z,19.81
2023-09-20T17:14:23.308Z,19.76
2023-09-20T17:16:49.624Z,19.72
2023-09-20T17:19:16.161Z,19.61
2023-09-20T17:21:42.477Z,19.50
2023-09-20T17:24:08.788Z,19.36
2023-09-20T17:26:35.282Z,19.32
2023-09-20T17:29:01.588Z,19.21
2023-09-20T17:31:28.020Z,19.15
2023-09-20T17:33:54.662Z,19.05
2023-09-20T17:36:20.988Z,19.01
2023-09-20T17:38:47.326Z,18.93
2023-09-20T17:41:13.733Z,18.90
2023-09-20T17:43:40.222Z,18.79
2023-09-20T17:46:06.649Z,18.82
2023-09-20T17:48:33.253Z,18.75
2023-09-20T17:50:59.597Z,18.73
2023-09-20T17:53:25.965Z,18.70
2023-09-20T17:55:54.278Z,18.70
2023-09-20T17:58:21.210Z,18.71
2023-09-20T18:00:47.527Z,18.73
2023-09-20T18:03:15.495Z,18.76
2023-09-20T18:05:42.283Z,18.78
2023-09-20T18:08:08.579Z,18.79
2023-09-20T18:10:35.011Z,18.79
2023-09-20T18:13:01.282Z,18.75
2023-09-20T18:15:27.552Z,18.72
2023-09-20T18:17:54.070Z,18.69
2023-09-20T18:20:20.438Z,18.64
2023-09-20T18:22:46.750Z,18.64
2023-09-20T18:25:13.197Z,18.61
2023-09-20T18:27:39.489Z,18.61
2023-09-20T18:30:05.818Z,18.53
2023-09-20T18:32:32.477Z,18.48
2023-09-20T18:34:58.908Z,18.47
2023-09-20T18:37:25.182Z,18.42
2023-09-20T18:39:51.640Z,18.39
2023-09-20T18:42:18.029Z,18.38
2023-09-20T18:44:44.434Z,18.38
2023-09-20T18:47:10.809Z,18.33
2023-09-20T18:49:38.954Z,18.29
2023-09-20T18:52:05.249Z,18.30
2023-09-20T18:54:31.711Z,18.29
2023-09-20T18:56:58.061Z,18.27
2023-09-20T18:59:24.444Z,18.28
2023-09-20T19:01:51.015Z,18.31
2023-09-20T19:04:17.650Z,18.26
2023-09-20T19:06:44.066Z,18.24
2023-09-20T19:09:10.470Z,18.23
2023-09-20T19:11:36.815Z,18.21
2023-09-20T19:14:03.108Z,18.21
2023-09-20T19:16:29.550Z,18.18
2023-09-20T19:18:55.956Z,18.25
2023-09-20T19:21:22.271Z,18.31
2023-09-20T19:23:48.673Z,18.31
2023-09-20T19:26:14.960Z,18.28
2023-09-20T19:28:41.238Z,18.22
2023-09-20T19:31:07.622Z,18.22
2023-09-20T19:33:34.051Z,18.19
2023-09-20T19:36:00.476Z,18.18
2023-09-20T19:38:27.119Z,18.15
2023-09-20T19:40:53.493Z,18.20
2023-09-20T19:43:19.790Z,18.24
2023-09-20T19:45:46.232Z,18.30
2023-09-20T19:48:12.656Z,18.29
2023-09-20T19:50:39.107Z,18.20
2023-09-20T19:53:05.793Z,18.08
2023-09-20T19:55:32.107Z,18.13
2023-09-20T19:57:58.403Z,18.17
2023-09-20T20:00:24.804Z,18.14
2023-09-20T20:02:51.263Z,18.17
2023-09-20T20:05:17.619Z,18.15
2023-09-20T20:07:44.171Z,18.06
2023-09-20T20:10:10.481Z,18.07
2023-09-20T20:12:36.752Z,18.08
2023-09-20T20:15:03.234Z,18.11
2023-09-20T20:17:29.607Z,18.09
2023-09-20T20:19:55.917Z,18.12
2023-09-20T20:22:22.319Z,18.12
2023-09-20T20:24:48.602Z,18.10
2023-09-20T20:27:14.907Z,18.16
2023-09-20T20:29:41.432Z,18.08
2023-09-20T20:32:07.727Z,18.08
2023-09-20T20:34:34.055Z,18.10
2023-09-20T20:37:00.551Z,18.14
2023-09-20T20:39:26.885Z,18.10
2023-09-20T20:41:53.184Z,18.13
2023-09-20T20:44:19.644Z,18.14
2023-09-20T20:46:46.331Z,18.17
2023-09-20T20:49:12.612Z,18.17
2023-09-20T20:51:39.020Z,18.12
2023-09-20T20:54:05.376Z,18.11
2023-09-20T20:56:31.695Z,18.09
2023-09-20T20:58:58.202Z,18.10
2023-09-20T21:01:24.561Z,18.14
2023-09-20T21:03:50.951Z,18.10
2023-09-20T21:06:17.516Z,18.08
2023-09-20T21:08:44.007Z,18.06
2023-09-20T21:11:10.566Z,18.02
2023-09-20T21:13:37.061Z,18.01
2023-09-20T21:16:03.429Z,18.04
2023-09-20T21:18:29.899Z,18.01
2023-09-20T21:20:56.488Z,18.03
2023-09-20T21:23:22.900Z,18.03
2023-09-20T21:25:49.202Z,18.06
2023-09-20T21:28:15.589Z,18.01
2023-09-20T21:30:41.919Z,18.02
2023-09-20T21:33:08.259Z,17.93
2023-09-20T21:35:34.811Z,17.94
2023-09-20T21:38:01.118Z,17.92
2023-09-20T21:40:27.404Z,17.93
2023-09-20T21:42:53.850Z,17.86
2023-09-20T21:45:20.197Z,17.88
2023-09-20T21:47:46.534Z,17.90
2023-09-20T21:50:13.019Z,17.86
2023-09-20T21:52:39.322Z,17.86
2023-09-20T21:55:05.653Z,17.75
2023-09-20T21:57:32.017Z,17.76
2023-09-20T21:59:58.326Z,17.69
2023-09-20T22:02:24.721Z,17.63
2023-09-20T22:04:51.197Z,17.58
2023-09-20T22:07:17.597Z,17.61
2023-09-20T22:09:43.907Z,17.51
2023-09-20T22:12:10.417Z,17.48
2023-09-20T22:14:36.724Z,17.37
2023-09-20T22:17:03.091Z,17.38
2023-09-20T22:19:29.492Z,17.34
2023-09-20T22:21:55.795Z,17.22
2023-09-20T22:24:22.098Z,17.28
2023-09-20T22:26:48.546Z,17.27
2023-09-20T22:29:14.961Z,17.26
2023-09-20T22:31:41.262Z,17.31
2023-09-20T22:34:07.663Z,17.36
2023-09-20T22:36:33.982Z,17.39
2023-09-20T22:39:00.346Z,17.32
2023-09-20T22:41:26.770Z,17.34
2023-09-20T22:43:53.076Z,17.36
2023-09-20T22:46:19.436Z,17.35
2023-09-20T22:48:46.278Z,17.42
2023-09-20T22:51:12.855Z,17.47
2023-09-20T22:53:39.269Z,17.47
2023-09-20T22:56:05.611Z,17.31
2023-09-20T22:58:31.884Z,17.31
2023-09-20T23:00:58.443Z,17.26
2023-09-20T23:03:24.835Z,17.28
2023-09-20T23:05:51.622Z,17.36
2023-09-20T23:08:18.134Z,17.44
2023-09-20T23:10:44.475Z,17.43
2023-09-20T23:13:10.792Z,17.47
2023-09-20T23:15:37.120Z,17.48
2023-09-20T23:18:03.579Z,17.44
2023-09-20T23:20:30.000Z,17.42
2023-09-20T23:22:56.343Z,17.32
2023-09-20T23:25:22.667Z,17.36
2023-09-20T23:27:48.989Z,17.32
2023-09-20T23:30:15.320Z,17.32
2023-09-20T23:32:41.776Z,17.30
2023-09-20T23:35:08.164Z,17.29
2023-09-20T23:37:34.481Z,17.29
2023-09-20T23:40:00.831Z,17.22
2023-09-20T23:42:27.667Z,17.25
2023-09-20T23:44:53.990Z,17.24
2023-09-20T23:47:20.327Z,17.21
2023-09-20T23:49:46.667Z,17.18
2023-09-20T23:52:12.962Z,17.16
2023-09-20T23:54:39.271Z,17.11
2023-09-20T23:57:05.604Z,17.10
2023-09-20T23:59:31.988Z,17.14
